createdAt,value
2019-03-23T00:02:11.879Z,11.89
2019-03-23T00:04:42.412Z,11.88
2019-03-23T00:07:13.211Z,11.88
2019-03-23T00:09:44.708Z,11.89
2019-03-23T00:12:15.196Z,11.88
2019-03-23T00:14:46.001Z,11.87
2019-03-23T00:17:16.479Z,11.81
2019-03-23T00:19:46.990Z,11.76
2019-03-23T00:22:17.479Z,11.70
2019-03-23T00:24:48.158Z,11.61
2019-03-23T00:27:18.573Z,11.58
2019-03-23T00:29:50.489Z,11.57
2019-03-23T00:32:21.089Z,11.56
2019-03-23T00:34:51.748Z,11.53
2019-03-23T00:37:22.343Z,11.50
2019-03-23T00:39:53.223Z,11.53
2019-03-23T00:42:23.664Z,11.53
2019-03-23T00:44:54.166Z,11.53
2019-03-23T00:47:25.044Z,11.53
2019-03-23T00:49:55.581Z,11.56
2019-03-23T00:52:25.998Z,11.58
2019-03-23T00:54:57.641Z,11.56
2019-03-23T00:57:28.083Z,11.54
2019-03-23T00:59:58.669Z,11.49
2019-03-23T01:02:29.138Z,11.44
2019-03-23T01:05:00.831Z,11.41
2019-03-23T01:07:33.484Z,11.39
2019-03-23T01:10:04.292Z,11.37
2019-03-23T01:12:34.704Z,11.36
2019-03-23T01:15:06.405Z,11.36
2019-03-23T01:17:36.906Z,11.34
2019-03-23T01:20:08.634Z,11.31
2019-03-23T01:22:39.138Z,11.28
2019-03-23T01:25:09.887Z,11.26
2019-03-23T01:27:40.652Z,11.24
2019-03-23T01:30:11.862Z,11.23
2019-03-23T01:32:42.347Z,11.24
2019-03-23T01:35:13.057Z,11.23
2019-03-23T01:37:43.570Z,11.20
2019-03-23T01:40:15.715Z,11.17
2019-03-23T01:42:46.230Z,11.15
2019-03-23T01:45:16.862Z,11.15
2019-03-23T01:47:47.532Z,11.12
2019-03-23T01:50:18.029Z,11.12
2019-03-23T01:52:48.965Z,11.14
2019-03-23T01:55:20.958Z,11.13
2019-03-23T01:57:52.447Z,11.13
2019-03-23T02:00:22.845Z,11.16
2019-03-23T02:02:53.819Z,11.15
2019-03-23T02:05:24.359Z,11.15
2019-03-23T02:07:54.923Z,11.12
2019-03-23T02:10:25.438Z,11.08
2019-03-23T02:12:56.696Z,11.07
2019-03-23T02:15:27.471Z,11.02
2019-03-23T02:17:57.959Z,10.98
2019-03-23T02:20:28.522Z,10.93
2019-03-23T02:22:58.983Z,10.86
2019-03-23T02:25:29.526Z,10.77
2019-03-23T02:28:00.297Z,10.74
2019-03-23T02:30:30.776Z,10.66
2019-03-23T02:33:01.342Z,10.61
2019-03-23T02:35:31.842Z,10.54
2019-03-23T02:38:02.358Z,10.47
2019-03-23T02:40:32.847Z,10.40
2019-03-23T02:43:03.428Z,10.34
2019-03-23T02:45:34.663Z,10.27
2019-03-23T02:48:05.149Z,10.14
2019-03-23T02:50:35.687Z,10.04
2019-03-23T02:53:06.199Z,9.97
2019-03-23T02:55:36.609Z,9.86
2019-03-23T02:58:07.096Z,9.74
2019-03-23T03:00:39.087Z,9.66
2019-03-23T03:03:09.694Z,9.52
2019-03-23T03:05:41.237Z,9.43
2019-03-23T03:08:11.730Z,9.33
2019-03-23T03:10:43.004Z,9.22
2019-03-23T03:13:13.530Z,9.11
2019-03-23T03:15:44.072Z,9.02
2019-03-23T03:18:14.555Z,9.00
2019-03-23T03:20:45.139Z,8.99
2019-03-23T03:23:15.862Z,9.02
2019-03-23T03:25:46.899Z,9.02
2019-03-23T03:28:17.325Z,9.11
2019-03-23T03:30:49.048Z,9.13
2019-03-23T03:33:20.490Z,9.22
2019-03-23T03:35:51.247Z,9.35
2019-03-23T03:38:21.764Z,9.45
2019-03-23T03:40:52.718Z,9.53
2019-03-23T03:43:24.081Z,9.61
2019-03-23T03:45:54.504Z,9.65
2019-03-23T03:48:25.006Z,9.59
2019-03-23T03:50:55.546Z,9.55
2019-03-23T03:53:25.879Z,9.43
2019-03-23T03:55:56.389Z,9.30
2019-03-23T03:58:26.893Z,9.22
2019-03-23T04:00:57.505Z,9.14
2019-03-23T04:03:27.954Z,9.08
2019-03-23T04:05:58.395Z,9.04
2019-03-23T04:08:28.821Z,9.00
2019-03-23T04:10:59.375Z,8.93
2019-03-23T04:13:30.288Z,8.90
2019-03-23T04:16:01.202Z,8.84
2019-03-23T04:18:31.693Z,8.82
2019-03-23T04:21:02.114Z,8.81
2019-03-23T04:23:33.015Z,8.83
2019-03-23T04:26:03.526Z,8.81
2019-03-23T04:28:34.236Z,8.83
2019-03-23T04:31:04.842Z,8.84
2019-03-23T04:33:35.305Z,8.86
2019-03-23T04:36:05.940Z,8.89
2019-03-23T04:38:36.442Z,8.91
2019-03-23T04:41:06.931Z,8.88
2019-03-23T04:43:37.350Z,8.90
2019-03-23T04:46:07.843Z,8.94
2019-03-23T04:48:38.295Z,8.99
2019-03-23T04:51:09.179Z,9.08
2019-03-23T04:53:39.675Z,9.11
2019-03-23T04:56:11.067Z,9.15
2019-03-23T04:58:41.558Z,9.23
2019-03-23T05:01:12.067Z,9.31
2019-03-23T05:03:42.495Z,9.37
2019-03-23T05:06:12.969Z,9.40
2019-03-23T05:08:43.555Z,9.41
2019-03-23T05:11:14.428Z,9.40
2019-03-23T05:13:45.547Z,9.40
2019-03-23T05:16:16.271Z,9.41
2019-03-23T05:18:47.013Z,9.43
2019-03-23T05:21:17.550Z,9.44
2019-03-23T05:23:48.000Z,9.45
2019-03-23T05:26:19.171Z,9.49
2019-03-23T05:28:49.951Z,9.52
2019-03-23T05:31:20.456Z,9.57
2019-03-23T05:33:50.892Z,9.49
2019-03-23T05:36:21.417Z,9.43
2019-03-23T05:38:51.909Z,9.47
2019-03-23T05:41:22.811Z,9.55
2019-03-23T05:43:53.209Z,9.58
2019-03-23T05:46:23.621Z,9.64
2019-03-23T05:48:54.545Z,9.67
2019-03-23T05:51:25.526Z,9.66
2019-03-23T05:53:56.284Z,9.68
2019-03-23T05:56:27.075Z,9.72
2019-03-23T05:58:58.396Z,9.76
2019-03-23T06:01:29.265Z,9.79
2019-03-23T06:03:59.738Z,9.81
2019-03-23T06:06:30.240Z,9.77
2019-03-23T06:09:00.605Z,9.72
2019-03-23T06:11:31.166Z,9.74
2019-03-23T06:14:01.586Z,9.71
2019-03-23T06:16:32.349Z,9.72
2019-03-23T06:19:02.754Z,9.77
2019-03-23T06:21:33.256Z,9.83
2019-03-23T06:24:03.770Z,9.90
2019-03-23T06:26:34.273Z,9.98
2019-03-23T06:29:05.098Z,10.01
2019-03-23T06:31:35.618Z,10.02
2019-03-23T06:34:06.165Z,9.99
2019-03-23T06:36:36.722Z,10.01
2019-03-23T06:39:08.776Z,9.97
2019-03-23T06:41:39.220Z,9.95
2019-03-23T06:44:09.647Z,9.88
2019-03-23T06:46:40.115Z,9.83
2019-03-23T06:49:10.731Z,9.77
2019-03-23T06:51:41.601Z,9.73
2019-03-23T06:54:13.777Z,9.79
2019-03-23T06:56:44.988Z,9.81
2019-03-23T06:59:15.512Z,9.82
2019-03-23T07:01:46.328Z,9.82
2019-03-23T07:04:17.110Z,9.84
2019-03-23T07:06:48.012Z,9.92
2019-03-23T07:09:18.459Z,9.96
2019-03-23T07:11:49.040Z,9.91
2019-03-23T07:14:19.519Z,9.86
2019-03-23T07:16:50.439Z,9.87
2019-03-23T07:19:20.877Z,9.93
2019-03-23T07:21:51.634Z,9.98
2019-03-23T07:24:22.614Z,10.02
2019-03-23T07:26:53.030Z,10.00
2019-03-23T07:29:23.652Z,9.94
2019-03-23T07:31:54.131Z,9.87
2019-03-23T07:34:24.652Z,9.91
2019-03-23T07:36:56.940Z,9.92
2019-03-23T07:39:30.381Z,9.89
2019-03-23T07:41:59.751Z,9.88
2019-03-23T07:44:30.271Z,9.85
2019-03-23T07:47:00.872Z,9.84
2019-03-23T07:49:31.293Z,9.84
2019-03-23T07:52:02.093Z,9.82
2019-03-23T07:54:32.738Z,9.79
2019-03-23T07:57:03.209Z,9.80
2019-03-23T07:59:33.768Z,9.79
2019-03-23T08:02:04.379Z,9.81
2019-03-23T08:04:34.810Z,9.80
2019-03-23T08:07:05.787Z,9.79
2019-03-23T08:09:38.094Z,9.81
2019-03-23T08:12:08.973Z,9.84
2019-03-23T08:14:39.395Z,9.84
2019-03-23T08:17:09.846Z,9.80
2019-03-23T08:19:40.262Z,9.75
2019-03-23T08:22:11.301Z,9.73
2019-03-23T08:24:42.838Z,9.76
2019-03-23T08:27:14.529Z,9.81
2019-03-23T08:29:44.925Z,9.85
2019-03-23T08:32:15.437Z,9.88
2019-03-23T08:34:46.263Z,9.92
2019-03-23T08:37:17.683Z,9.91
2019-03-23T08:39:48.878Z,9.95
2019-03-23T08:42:19.545Z,9.94
2019-03-23T08:44:50.066Z,10.03
2019-03-23T08:47:20.692Z,10.10
2019-03-23T08:49:51.257Z,10.12
2019-03-23T08:52:21.675Z,10.15
2019-03-23T08:54:54.455Z,10.27
2019-03-23T08:57:25.017Z,10.43
2019-03-23T08:59:56.669Z,10.57
2019-03-23T09:02:27.094Z,10.73
2019-03-23T09:04:57.836Z,10.89
2019-03-23T09:07:28.805Z,11.02
2019-03-23T09:10:00.639Z,11.10
2019-03-23T09:12:31.373Z,11.22
2019-03-23T09:15:01.782Z,11.28
2019-03-23T09:17:32.522Z,11.26
2019-03-23T09:20:02.941Z,11.20
2019-03-23T09:22:33.441Z,11.26
2019-03-23T09:25:04.358Z,11.33
2019-03-23T09:27:35.668Z,11.27
2019-03-23T09:30:07.576Z,11.22
2019-03-23T09:32:38.530Z,11.18
2019-03-23T09:35:09.445Z,11.18
2019-03-23T09:37:40.364Z,11.24
2019-03-23T09:40:11.571Z,11.32
2019-03-23T09:42:42.256Z,11.41
2019-03-23T09:45:14.365Z,11.49
2019-03-23T09:47:44.915Z,11.49
2019-03-23T09:50:15.755Z,11.53
2019-03-23T09:52:47.086Z,11.53
2019-03-23T09:55:17.671Z,11.58
2019-03-23T09:57:48.101Z,11.62
2019-03-23T10:00:18.581Z,11.60
2019-03-23T10:02:49.111Z,11.61
2019-03-23T10:05:21.081Z,11.68
2019-03-23T10:07:51.528Z,11.78
2019-03-23T10:10:22.355Z,11.85
2019-03-23T10:12:53.551Z,11.88
2019-03-23T10:15:24.238Z,11.83
2019-03-23T10:17:54.704Z,11.80
2019-03-23T10:20:26.145Z,11.69
2019-03-23T10:22:56.680Z,11.59
2019-03-23T10:25:27.203Z,11.59
2019-03-23T10:27:57.749Z,11.60
2019-03-23T10:30:28.265Z,11.60
2019-03-23T10:32:58.807Z,11.57
2019-03-23T10:35:29.216Z,11.56
2019-03-23T10:37:59.818Z,11.54
2019-03-23T10:40:32.680Z,11.50
2019-03-23T10:43:02.538Z,11.50
2019-03-23T10:45:40.027Z,11.54
2019-03-23T10:48:05.238Z,11.61
2019-03-23T10:50:36.113Z,11.64
2019-03-23T10:53:06.684Z,11.64
2019-03-23T10:55:37.164Z,11.61
2019-03-23T10:58:07.618Z,11.59
2019-03-23T11:00:38.122Z,11.53
2019-03-23T11:03:10.000Z,11.47
2019-03-23T11:05:40.573Z,11.47
2019-03-23T11:08:11.074Z,11.56
2019-03-23T11:10:42.197Z,11.60
2019-03-23T11:13:12.594Z,11.64
2019-03-23T11:15:43.206Z,11.60
2019-03-23T11:18:14.084Z,11.55
2019-03-23T11:20:44.590Z,11.52
2019-03-23T11:23:15.085Z,11.49
2019-03-23T11:25:45.937Z,11.43
2019-03-23T11:28:17.293Z,11.39
2019-03-23T11:30:47.803Z,11.42
2019-03-23T11:33:18.595Z,11.43
2019-03-23T11:35:57.511Z,11.41
2019-03-23T11:38:21.624Z,11.43
2019-03-23T11:40:55.377Z,11.41
2019-03-23T11:43:25.781Z,11.42
2019-03-23T11:45:56.275Z,11.47
2019-03-23T11:48:26.785Z,11.47
2019-03-23T11:50:57.647Z,11.47
2019-03-23T11:53:28.578Z,11.51
2019-03-23T11:55:59.573Z,11.55
2019-03-23T11:58:30.162Z,11.54
2019-03-23T12:01:01.747Z,11.56
2019-03-23T12:03:32.723Z,11.67
2019-03-23T12:06:04.823Z,11.83
2019-03-23T12:08:35.896Z,12.02
2019-03-23T12:11:06.665Z,12.21
2019-03-23T12:13:37.410Z,12.53
2019-03-23T12:16:08.185Z,12.96
2019-03-23T12:18:38.818Z,13.45
2019-03-23T12:21:09.553Z,13.89
2019-03-23T12:23:40.242Z,14.25
2019-03-23T12:26:10.871Z,14.50
2019-03-23T12:28:41.348Z,14.62
2019-03-23T12:31:11.754Z,14.64
2019-03-23T12:33:42.215Z,14.56
2019-03-23T12:36:12.747Z,14.46
2019-03-23T12:38:43.370Z,14.28
2019-03-23T12:41:22.787Z,14.15
2019-03-23T12:43:46.806Z,14.09
2019-03-23T12:46:17.191Z,14.04
2019-03-23T12:48:48.085Z,14.06
2019-03-23T12:51:18.631Z,14.03
2019-03-23T12:53:49.131Z,14.01
2019-03-23T12:56:20.207Z,14.05
2019-03-23T12:58:51.371Z,14.09
2019-03-23T13:01:22.577Z,14.37
2019-03-23T13:03:53.175Z,14.67
2019-03-23T13:06:23.833Z,14.88
2019-03-23T13:08:54.470Z,15.03
2019-03-23T13:11:44.321Z,15.16
2019-03-23T13:14:14.976Z,15.21
2019-03-23T13:16:45.575Z,15.10
2019-03-23T13:19:16.116Z,15.04
2019-03-23T13:21:46.671Z,14.97
2019-03-23T13:24:17.213Z,14.88
2019-03-23T13:26:47.786Z,14.82
2019-03-23T13:29:18.571Z,14.76
2019-03-23T13:31:49.188Z,14.68
2019-03-23T13:34:19.870Z,14.53
2019-03-23T13:36:51.441Z,14.50
2019-03-23T13:39:21.986Z,14.44
2019-03-23T13:41:52.539Z,14.43
2019-03-23T13:44:23.121Z,14.44
2019-03-23T13:46:53.629Z,14.49
2019-03-23T13:49:24.202Z,14.54
2019-03-23T13:51:55.067Z,14.59
2019-03-23T13:54:25.966Z,14.61
2019-03-23T13:56:56.694Z,14.69
2019-03-23T13:59:29.084Z,14.82
2019-03-23T14:02:01.144Z,14.92
2019-03-23T14:04:34.086Z,15.02
2019-03-23T14:07:04.586Z,15.07
2019-03-23T14:09:35.491Z,15.03
2019-03-23T14:12:06.749Z,15.13
2019-03-23T14:14:37.575Z,15.30
2019-03-23T14:17:08.121Z,15.32
2019-03-23T14:19:38.662Z,15.29
2019-03-23T14:22:09.221Z,15.30
2019-03-23T14:24:39.605Z,15.25
2019-03-23T14:27:10.252Z,15.11
2019-03-23T14:29:41.015Z,15.02
2019-03-23T14:32:12.617Z,15.12
2019-03-23T14:34:43.970Z,15.29
2019-03-23T14:37:14.535Z,15.40
2019-03-23T14:39:44.949Z,15.49
2019-03-23T14:42:15.990Z,15.55
2019-03-23T14:44:46.838Z,15.61
2019-03-23T14:47:17.719Z,15.64
2019-03-23T14:49:50.092Z,15.50
2019-03-23T14:52:20.544Z,15.29
2019-03-23T14:54:51.355Z,15.13
2019-03-23T14:57:22.475Z,14.97
2019-03-23T14:59:53.078Z,14.85
2019-03-23T15:02:23.850Z,14.67
2019-03-23T15:04:54.613Z,14.50
2019-03-23T15:07:25.687Z,14.31
2019-03-23T15:09:56.359Z,14.17
2019-03-23T15:12:26.734Z,14.06
2019-03-23T15:14:57.154Z,13.98
2019-03-23T15:17:28.094Z,13.91
2019-03-23T15:19:58.583Z,13.86
2019-03-23T15:22:29.074Z,13.83
2019-03-23T15:25:00.213Z,13.74
2019-03-23T15:27:32.146Z,13.67
2019-03-23T15:30:02.883Z,13.61
2019-03-23T15:32:33.658Z,13.55
2019-03-23T15:35:04.415Z,13.52
2019-03-23T15:37:34.960Z,13.55
2019-03-23T15:40:05.942Z,13.55
2019-03-23T15:42:36.872Z,13.58
2019-03-23T15:45:08.641Z,13.62
2019-03-23T15:47:39.486Z,13.64
2019-03-23T15:50:11.482Z,13.66
2019-03-23T15:52:42.070Z,13.65
2019-03-23T15:55:12.611Z,13.64
2019-03-23T15:57:43.241Z,13.66
2019-03-23T16:00:14.470Z,13.66
2019-03-23T16:02:45.866Z,13.63
2019-03-23T16:05:17.829Z,13.58
2019-03-23T16:07:48.667Z,13.56
2019-03-23T16:10:19.182Z,13.58
2019-03-23T16:12:49.648Z,13.60
2019-03-23T16:15:20.254Z,13.60
2019-03-23T16:17:51.030Z,13.59
2019-03-23T16:20:21.837Z,13.56
2019-03-23T16:22:53.027Z,13.54
2019-03-23T16:25:23.691Z,13.52
2019-03-23T16:27:54.161Z,13.51
2019-03-23T16:30:30.900Z,13.48
2019-03-23T16:33:01.509Z,13.46
2019-03-23T16:35:33.492Z,13.44
2019-03-23T16:38:04.113Z,13.43
2019-03-23T16:40:34.673Z,13.41
2019-03-23T16:43:06.320Z,13.32
2019-03-23T16:45:36.979Z,13.23
2019-03-23T16:48:08.098Z,13.16
2019-03-23T16:50:38.654Z,13.14
2019-03-23T16:53:09.359Z,13.12
2019-03-23T16:55:39.844Z,13.07
2019-03-23T16:58:16.047Z,13.04
2019-03-23T17:00:42.997Z,13.03
2019-03-23T17:03:13.590Z,12.98
2019-03-23T17:05:44.552Z,12.89
2019-03-23T17:08:14.960Z,12.82
2019-03-23T17:10:45.483Z,12.80
2019-03-23T17:13:16.175Z,12.79
2019-03-23T17:15:46.713Z,12.76
2019-03-23T17:18:18.360Z,12.75
2019-03-23T17:20:48.870Z,12.76
2019-03-23T17:23:20.031Z,12.74
2019-03-23T17:25:50.540Z,12.73
2019-03-23T17:28:20.951Z,12.69
2019-03-23T17:30:51.484Z,12.67
2019-03-23T17:33:21.906Z,12.67
2019-03-23T17:35:52.530Z,12.69
2019-03-23T17:38:23.325Z,12.72
2019-03-23T17:40:54.153Z,12.75
2019-03-23T17:43:25.710Z,12.78
2019-03-23T17:45:56.262Z,12.79
2019-03-23T17:48:26.704Z,12.82
2019-03-23T17:50:57.241Z,12.85
2019-03-23T17:53:27.645Z,12.87
2019-03-23T17:55:58.754Z,12.86
2019-03-23T17:58:29.205Z,12.85
2019-03-23T18:01:00.564Z,12.86
2019-03-23T18:03:31.746Z,12.87
2019-03-23T18:06:02.450Z,12.88
2019-03-23T18:08:33.206Z,12.87
2019-03-23T18:11:03.954Z,12.87
2019-03-23T18:13:34.445Z,12.84
2019-03-23T18:16:04.968Z,12.84
2019-03-23T18:18:35.753Z,12.85
2019-03-23T18:21:06.284Z,12.86
2019-03-23T18:23:36.786Z,12.85
2019-03-23T18:26:07.454Z,12.86
2019-03-23T18:28:38.030Z,12.86
2019-03-23T18:31:08.488Z,12.84
2019-03-23T18:33:39.000Z,12.81
2019-03-23T18:36:10.780Z,12.79
2019-03-23T18:38:41.265Z,12.76
2019-03-23T18:41:11.783Z,12.74
2019-03-23T18:43:42.235Z,12.73
2019-03-23T18:46:12.717Z,12.75
2019-03-23T18:48:43.511Z,12.76
2019-03-23T18:51:14.246Z,12.78
2019-03-23T18:53:45.178Z,12.77
2019-03-23T18:56:15.615Z,12.75
2019-03-23T18:58:46.154Z,12.71
2019-03-23T19:01:17.495Z,12.68
2019-03-23T19:03:47.934Z,12.66
2019-03-23T19:06:18.460Z,12.67
2019-03-23T19:08:48.975Z,12.69
2019-03-23T19:11:19.583Z,12.72
2019-03-23T19:13:50.098Z,12.74
2019-03-23T19:16:21.917Z,12.76
2019-03-23T19:18:52.722Z,12.80
2019-03-23T19:21:23.187Z,12.82
2019-03-23T19:23:53.610Z,12.82
2019-03-23T19:26:24.039Z,12.84
2019-03-23T19:28:54.836Z,12.86
2019-03-23T19:31:25.585Z,12.86
2019-03-23T19:33:55.992Z,12.83
2019-03-23T19:36:26.723Z,12.81
2019-03-23T19:38:58.848Z,12.80
2019-03-23T19:41:29.666Z,12.79
2019-03-23T19:44:00.483Z,12.78
2019-03-23T19:46:30.938Z,12.77
2019-03-23T19:49:01.710Z,12.76
2019-03-23T19:51:32.381Z,12.76
2019-03-23T19:54:03.168Z,12.75
2019-03-23T19:56:34.826Z,12.75
2019-03-23T19:59:05.314Z,12.74
2019-03-23T20:01:36.299Z,12.73
2019-03-23T20:04:06.890Z,12.74
2019-03-23T20:06:37.250Z,12.72
2019-03-23T20:09:08.832Z,12.72
2019-03-23T20:11:39.895Z,12.72
2019-03-23T20:14:10.393Z,12.72
2019-03-23T20:16:41.006Z,12.71
2019-03-23T20:19:11.619Z,12.71
2019-03-23T20:21:42.024Z,12.69
2019-03-23T20:24:13.731Z,12.69
2019-03-23T20:26:44.223Z,12.69
2019-03-23T20:29:15.069Z,12.69
2019-03-23T20:31:45.720Z,12.70
2019-03-23T20:34:16.097Z,12.69
2019-03-23T20:36:47.290Z,12.69
2019-03-23T20:39:17.893Z,12.67
2019-03-23T20:41:48.352Z,12.67
2019-03-23T20:44:18.822Z,12.66
2019-03-23T20:46:49.745Z,12.66
2019-03-23T20:49:20.460Z,12.66
2019-03-23T20:51:51.564Z,12.66
2019-03-23T20:54:22.188Z,12.66
2019-03-23T20:56:52.791Z,12.64
2019-03-23T20:59:23.330Z,12.62
2019-03-23T21:01:54.379Z,12.62
2019-03-23T21:04:25.101Z,12.63
2019-03-23T21:06:55.537Z,12.62
2019-03-23T21:09:26.408Z,12.60
2019-03-23T21:11:57.259Z,12.60
2019-03-23T21:14:28.023Z,12.60
2019-03-23T21:16:58.527Z,12.60
2019-03-23T21:19:29.118Z,12.59
2019-03-23T21:21:59.558Z,12.58
2019-03-23T21:24:30.298Z,12.58
2019-03-23T21:27:01.123Z,12.57
2019-03-23T21:29:32.633Z,12.56
2019-03-23T21:32:03.129Z,12.57
2019-03-23T21:34:33.665Z,12.57
2019-03-23T21:37:05.288Z,12.55
2019-03-23T21:39:36.431Z,12.53
2019-03-23T21:42:06.944Z,12.53
2019-03-23T21:44:37.750Z,12.52
2019-03-23T21:47:08.533Z,12.53
2019-03-23T21:49:39.061Z,12.51
2019-03-23T21:52:09.587Z,12.51
2019-03-23T21:54:40.014Z,12.52
2019-03-23T21:57:10.659Z,12.51
2019-03-23T21:59:41.389Z,12.50
2019-03-23T22:02:11.978Z,12.50
2019-03-23T22:04:43.543Z,12.51
2019-03-23T22:07:13.926Z,12.49
2019-03-23T22:09:44.354Z,12.51
2019-03-23T22:12:15.166Z,12.51
2019-03-23T22:14:47.125Z,12.51
2019-03-23T22:17:17.650Z,12.51
2019-03-23T22:19:48.836Z,12.52
2019-03-23T22:22:19.363Z,12.50
2019-03-23T22:24:49.783Z,12.48
2019-03-23T22:27:20.225Z,12.50
2019-03-23T22:29:50.662Z,12.50
2019-03-23T22:32:22.249Z,12.48
2019-03-23T22:34:52.743Z,12.48
2019-03-23T22:37:23.098Z,12.44
2019-03-23T22:39:53.587Z,12.42
2019-03-23T22:42:24.076Z,12.42
2019-03-23T22:44:54.499Z,12.42
2019-03-23T22:47:24.888Z,12.41
2019-03-23T22:49:55.638Z,12.41
2019-03-23T22:52:26.120Z,12.41
2019-03-23T22:54:56.904Z,12.40
2019-03-23T22:57:27.426Z,12.38
2019-03-23T22:59:58.183Z,12.38
2019-03-23T23:02:28.772Z,12.39
2019-03-23T23:04:59.249Z,12.39
2019-03-23T23:07:29.757Z,12.38
2019-03-23T23:10:00.593Z,12.38
2019-03-23T23:12:31.491Z,12.37
2019-03-23T23:15:04.816Z,12.35
2019-03-23T23:17:34.369Z,12.35
2019-03-23T23:20:05.456Z,12.35
2019-03-23T23:22:35.948Z,12.34
2019-03-23T23:25:06.884Z,12.33
2019-03-23T23:27:37.401Z,12.32
2019-03-23T23:30:10.109Z,12.32
2019-03-23T23:32:40.622Z,12.31
2019-03-23T23:35:11.321Z,12.32
2019-03-23T23:37:43.831Z,12.28
2019-03-23T23:40:15.611Z,12.28
2019-03-23T23:42:47.492Z,12.25
2019-03-23T23:45:18.053Z,12.24
2019-03-23T23:47:48.908Z,12.26
2019-03-23T23:50:19.562Z,12.25
2019-03-23T23:52:50.115Z,12.22
2019-03-23T23:55:20.606Z,12.21
2019-03-23T23:57:51.171Z,12.22
